sensor_id;sensor_type;location;lat;lon;timestamp;pressure;altitude;pressure_sealevel;temperature;humidity
16793;BME280;8513;42.662;23.350;2023-04-15T00:00:13;94136.56;;;9.97;55.40
16793;BME280;8513;42.662;23.350;2023-04-15T00:02:40;94144.59;;;9.96;55.88
16793;BME280;8513;42.662;23.350;2023-04-15T00:05:06;94138.00;;;10.08;54.29
16793;BME280;8513;42.662;23.350;2023-04-15T00:07:31;94140.66;;;10.00;53.76
16793;BME280;8513;42.662;23.350;2023-04-15T00:09:57;94159.31;;;10.05;52.77
16793;BME280;8513;42.662;23.350;2023-04-15T00:12:26;94191.81;;;10.12;53.66
16793;BME280;8513;42.662;23.350;2023-04-15T00:14:52;94185.44;;;10.06;53.54
16793;BME280;8513;42.662;23.350;2023-04-15T00:17:17;94170.31;;;10.08;53.69
16793;BME280;8513;42.662;23.350;2023-04-15T00:19:43;94173.72;;;10.17;54.61
16793;BME280;8513;42.662;23.350;2023-04-15T00:22:12;94172.69;;;10.26;55.40
16793;BME280;8513;42.662;23.350;2023-04-15T00:24:38;94181.94;;;10.30;55.31
16793;BME280;8513;42.662;23.350;2023-04-15T00:27:04;94169.59;;;10.23;55.78
16793;BME280;8513;42.662;23.350;2023-04-15T00:29:29;94165.34;;;10.22;55.88
16793;BME280;8513;42.662;23.350;2023-04-15T00:31:55;94162.25;;;10.10;55.54
16793;BME280;8513;42.662;23.350;2023-04-15T00:34:23;94165.06;;;10.08;54.56
16793;BME280;8513;42.662;23.350;2023-04-15T00:36:49;94161.91;;;10.21;55.75
16793;BME280;8513;42.662;23.350;2023-04-15T00:39:15;94158.47;;;10.12;57.28
16793;BME280;8513;42.662;23.350;2023-04-15T00:41:43;94172.00;;;9.93;55.89
16793;BME280;8513;42.662;23.350;2023-04-15T00:44:08;94180.22;;;9.90;55.35
16793;BME280;8513;42.662;23.350;2023-04-15T00:46:35;94177.38;;;10.08;56.34
16793;BME280;8513;42.662;23.350;2023-04-15T00:49:03;94177.34;;;10.24;57.56
16793;BME280;8513;42.662;23.350;2023-04-15T00:51:28;94177.34;;;10.24;57.64
16793;BME280;8513;42.662;23.350;2023-04-15T00:53:56;94177.34;;;10.24;57.78
16793;BME280;8513;42.662;23.350;2023-04-15T00:56:22;94174.88;;;10.14;57.88
16793;BME280;8513;42.662;23.350;2023-04-15T00:58:49;94172.59;;;10.11;57.03
16793;BME280;8513;42.662;23.350;2023-04-15T01:01:17;94171.94;;;10.09;57.14
16793;BME280;8513;42.662;23.350;2023-04-15T01:03:46;94180.84;;;10.08;57.76
16793;BME280;8513;42.662;23.350;2023-04-15T01:06:12;94187.41;;;10.04;57.28
16793;BME280;8513;42.662;23.350;2023-04-15T01:08:38;94183.13;;;10.03;56.71
16793;BME280;8513;42.662;23.350;2023-04-15T01:11:04;94185.78;;;9.95;57.15
16793;BME280;8513;42.662;23.350;2023-04-15T01:13:30;94183.13;;;10.03;57.25
16793;BME280;8513;42.662;23.350;2023-04-15T01:15:57;94180.19;;;9.98;57.42
16793;BME280;8513;42.662;23.350;2023-04-15T01:18:23;94177.09;;;9.94;57.24
16793;BME280;8513;42.662;23.350;2023-04-15T01:20:48;94177.91;;;9.95;57.10
16793;BME280;8513;42.662;23.350;2023-04-15T01:23:14;94172.63;;;10.03;57.47
16793;BME280;8513;42.662;23.350;2023-04-15T01:25:42;94175.75;;;9.99;57.59
16793;BME280;8513;42.662;23.350;2023-04-15T01:28:09;94161.66;;;9.91;57.59
16793;BME280;8513;42.662;23.350;2023-04-15T01:30:35;94165.13;;;9.92;58.07
16793;BME280;8513;42.662;23.350;2023-04-15T01:33:00;94160.69;;;9.92;57.77
16793;BME280;8513;42.662;23.350;2023-04-15T01:35:26;94159.72;;;9.85;58.07
16793;BME280;8513;42.662;23.350;2023-04-15T01:37:53;94154.94;;;9.81;57.84
16793;BME280;8513;42.662;23.350;2023-04-15T01:40:19;94162.34;;;9.77;57.93
16793;BME280;8513;42.662;23.350;2023-04-15T01:42:45;94174.81;;;9.75;58.18
16793;BME280;8513;42.662;23.350;2023-04-15T01:45:11;94164.69;;;9.64;58.46
16793;BME280;8513;42.662;23.350;2023-04-15T01:47:37;94173.88;;;9.68;58.24
16793;BME280;8513;42.662;23.350;2023-04-15T01:50:03;94176.97;;;9.71;57.88
16793;BME280;8513;42.662;23.350;2023-04-15T01:52:28;94184.53;;;9.58;57.31
16793;BME280;8513;42.662;23.350;2023-04-15T01:54:54;94182.56;;;9.60;57.27
16793;BME280;8513;42.662;23.350;2023-04-15T01:57:19;94197.19;;;9.63;57.54
16793;BME280;8513;42.662;23.350;2023-04-15T01:59:45;94199.13;;;9.61;57.43
16793;BME280;8513;42.662;23.350;2023-04-15T02:02:11;94194.22;;;9.66;56.95
16793;BME280;8513;42.662;23.350;2023-04-15T02:04:36;94191.75;;;9.64;57.15
16793;BME280;8513;42.662;23.350;2023-04-15T02:07:02;94186.81;;;9.61;56.92
16793;BME280;8513;42.662;23.350;2023-04-15T02:09:27;94178.13;;;9.69;56.80
16793;BME280;8513;42.662;23.350;2023-04-15T02:11:53;94193.41;;;9.65;57.06
16793;BME280;8513;42.662;23.350;2023-04-15T02:14:18;94181.59;;;9.61;57.50
16793;BME280;8513;42.662;23.350;2023-04-15T02:16:44;94182.72;;;9.67;57.23
16793;BME280;8513;42.662;23.350;2023-04-15T02:19:09;94175.03;;;9.65;57.26
16793;BME280;8513;42.662;23.350;2023-04-15T02:21:35;94175.50;;;9.69;57.97
16793;BME280;8513;42.662;23.350;2023-04-15T02:24:00;94173.22;;;9.66;57.39
16793;BME280;8513;42.662;23.350;2023-04-15T02:26:26;94173.22;;;9.58;58.12
16793;BME280;8513;42.662;23.350;2023-04-15T02:28:53;94181.59;;;9.53;59.13
16793;BME280;8513;42.662;23.350;2023-04-15T02:31:19;94174.38;;;9.47;59.17
16793;BME280;8513;42.662;23.350;2023-04-15T02:33:45;94169.81;;;9.49;58.54
16793;BME280;8513;42.662;23.350;2023-04-15T02:36:14;94164.84;;;9.46;58.46
16793;BME280;8513;42.662;23.350;2023-04-15T02:38:40;94177.16;;;9.45;58.60
16793;BME280;8513;42.662;23.350;2023-04-15T02:41:08;94174.06;;;9.34;58.11
16793;BME280;8513;42.662;23.350;2023-04-15T02:43:33;94182.59;;;9.27;58.32
16793;BME280;8513;42.662;23.350;2023-04-15T02:45:59;94192.78;;;9.31;58.32
16793;BME280;8513;42.662;23.350;2023-04-15T02:48:24;94187.84;;;9.27;58.04
16793;BME280;8513;42.662;23.350;2023-04-15T02:50:50;94172.09;;;9.19;58.49
16793;BME280;8513;42.662;23.350;2023-04-15T02:53:15;94166.84;;;9.19;58.98
16793;BME280;8513;42.662;23.350;2023-04-15T02:55:41;94182.59;;;9.27;59.89
16793;BME280;8513;42.662;23.350;2023-04-15T02:58:07;94187.19;;;9.01;59.95
16793;BME280;8513;42.662;23.350;2023-04-15T03:00:32;94192.25;;;9.11;59.08
16793;BME280;8513;42.662;23.350;2023-04-15T03:03:01;94181.63;;;9.12;58.91
16793;BME280;8513;42.662;23.350;2023-04-15T03:05:27;94189.16;;;9.07;59.46
16793;BME280;8513;42.662;23.350;2023-04-15T03:07:53;94191.91;;;9.14;59.50
16793;BME280;8513;42.662;23.350;2023-04-15T03:10:19;94192.91;;;9.13;59.23
16793;BME280;8513;42.662;23.350;2023-04-15T03:12:44;94194.25;;;9.17;58.51
16793;BME280;8513;42.662;23.350;2023-04-15T03:15:10;94203.50;;;8.70;58.77
16793;BME280;8513;42.662;23.350;2023-04-15T03:17:36;94215.41;;;8.56;59.28
16793;BME280;8513;42.662;23.350;2023-04-15T03:20:02;94207.78;;;8.79;58.63
16793;BME280;8513;42.662;23.350;2023-04-15T03:22:32;94213.06;;;8.88;58.70
16793;BME280;8513;42.662;23.350;2023-04-15T03:24:57;94213.41;;;8.93;58.43
16793;BME280;8513;42.662;23.350;2023-04-15T03:27:23;94215.94;;;8.76;58.01
16793;BME280;8513;42.662;23.350;2023-04-15T03:29:49;94205.97;;;8.72;57.43
16793;BME280;8513;42.662;23.350;2023-04-15T03:32:14;94226.41;;;8.60;57.25
16793;BME280;8513;42.662;23.350;2023-04-15T03:34:40;94229.47;;;8.47;57.42
16793;BME280;8513;42.662;23.350;2023-04-15T03:37:06;94209.56;;;8.36;57.93
16793;BME280;8513;42.662;23.350;2023-04-15T03:39:33;94233.00;;;8.38;58.19
16793;BME280;8513;42.662;23.350;2023-04-15T03:41:58;94232.19;;;8.03;58.98
16793;BME280;8513;42.662;23.350;2023-04-15T03:44:25;94225.00;;;8.05;59.21
16793;BME280;8513;42.662;23.350;2023-04-15T03:46:51;94244.34;;;8.12;59.61
16793;BME280;8513;42.662;23.350;2023-04-15T03:49:16;94244.06;;;7.89;59.19
16793;BME280;8513;42.662;23.350;2023-04-15T03:51:43;94253.53;;;8.16;58.64
16793;BME280;8513;42.662;23.350;2023-04-15T03:54:09;94250.09;;;8.16;58.96
16793;BME280;8513;42.662;23.350;2023-04-15T03:56:34;94252.75;;;8.24;59.00
16793;BME280;8513;42.662;23.350;2023-04-15T03:59:00;94263.69;;;8.20;59.35
16793;BME280;8513;42.662;23.350;2023-04-15T04:01:25;94250.97;;;7.99;60.23
16793;BME280;8513;42.662;23.350;2023-04-15T04:03:51;94254.16;;;8.10;59.54
16793;BME280;8513;42.662;23.350;2023-04-15T04:06:16;94253.00;;;8.05;59.48
16793;BME280;8513;42.662;23.350;2023-04-15T04:08:42;94269.97;;;8.01;59.39
16793;BME280;8513;42.662;23.350;2023-04-15T04:11:07;94270.31;;;8.06;59.18
16793;BME280;8513;42.662;23.350;2023-04-15T04:13:33;94265.28;;;8.12;59.86
16793;BME280;8513;42.662;23.350;2023-04-15T04:15:58;94262.19;;;8.17;59.76
16793;BME280;8513;42.662;23.350;2023-04-15T04:18:24;94264.03;;;8.25;60.41
16793;BME280;8513;42.662;23.350;2023-04-15T04:20:49;94268.47;;;8.24;60.35
16793;BME280;8513;42.662;23.350;2023-04-15T04:23:15;94274.56;;;8.33;60.18
16793;BME280;8513;42.662;23.350;2023-04-15T04:25:40;94274.41;;;8.34;60.05
16793;BME280;8513;42.662;23.350;2023-04-15T04:28:06;94267.19;;;8.36;59.44
16793;BME280;8513;42.662;23.350;2023-04-15T04:30:32;94254.78;;;8.38;59.27
16793;BME280;8513;42.662;23.350;2023-04-15T04:32:57;94262.69;;;8.47;59.34
16793;BME280;8513;42.662;23.350;2023-04-15T04:35:23;94264.81;;;8.43;59.23
16793;BME280;8513;42.662;23.350;2023-04-15T04:37:48;94263.84;;;8.44;59.17
16793;BME280;8513;42.662;23.350;2023-04-15T04:40:15;94272.56;;;8.53;59.71
16793;BME280;8513;42.662;23.350;2023-04-15T04:42:40;94275.84;;;8.55;59.50
16793;BME280;8513;42.662;23.350;2023-04-15T04:45:06;94268.56;;;8.41;60.19
16793;BME280;8513;42.662;23.350;2023-04-15T04:47:31;94279.34;;;8.37;60.45
16793;BME280;8513;42.662;23.350;2023-04-15T04:49:57;94278.09;;;8.50;60.02
16793;BME280;8513;42.662;23.350;2023-04-15T04:52:22;94282.91;;;8.36;59.30
16793;BME280;8513;42.662;23.350;2023-04-15T04:54:48;94286.66;;;8.60;58.35
16793;BME280;8513;42.662;23.350;2023-04-15T04:57:13;94284.44;;;8.73;57.85
16793;BME280;8513;42.662;23.350;2023-04-15T04:59:39;94286.47;;;8.88;57.60
16793;BME280;8513;42.662;23.350;2023-04-15T05:02:04;94292.41;;;8.55;58.39
16793;BME280;8513;42.662;23.350;2023-04-15T05:04:30;94302.09;;;8.71;57.69
16793;BME280;8513;42.662;23.350;2023-04-15T05:06:56;94288.72;;;8.82;57.12
16793;BME280;8513;42.662;23.350;2023-04-15T05:09:22;94298.56;;;8.89;57.13
16793;BME280;8513;42.662;23.350;2023-04-15T05:11:47;94304.31;;;8.92;57.21
16793;BME280;8513;42.662;23.350;2023-04-15T05:14:13;94318.31;;;9.09;56.74
16793;BME280;8513;42.662;23.350;2023-04-15T05:16:38;94324.06;;;9.21;56.25
16793;BME280;8513;42.662;23.350;2023-04-15T05:19:04;94325.38;;;9.17;55.11
16793;BME280;8513;42.662;23.350;2023-04-15T05:21:29;94321.09;;;9.08;55.64
16793;BME280;8513;42.662;23.350;2023-04-15T05:23:55;94324.22;;;9.19;55.05
16793;BME280;8513;42.662;23.350;2023-04-15T05:26:21;94318.19;;;9.27;54.52
16793;BME280;8513;42.662;23.350;2023-04-15T05:28:46;94325.91;;;9.37;54.31
16793;BME280;8513;42.662;23.350;2023-04-15T05:31:12;94318.19;;;9.43;54.13
16793;BME280;8513;42.662;23.350;2023-04-15T05:33:38;94313.09;;;9.25;53.70
16793;BME280;8513;42.662;23.350;2023-04-15T05:36:04;94319.03;;;9.36;53.35
16793;BME280;8513;42.662;23.350;2023-04-15T05:38:30;94316.91;;;9.47;53.29
16793;BME280;8513;42.662;23.350;2023-04-15T05:40:56;94309.53;;;9.59;52.59
16793;BME280;8513;42.662;23.350;2023-04-15T05:43:21;94323.16;;;9.63;52.28
16793;BME280;8513;42.662;23.350;2023-04-15T05:45:46;94312.50;;;9.64;52.68
16793;BME280;8513;42.662;23.350;2023-04-15T05:48:12;94316.25;;;9.70;52.63
16793;BME280;8513;42.662;23.350;2023-04-15T05:50:40;94320.38;;;9.81;51.89
16793;BME280;8513;42.662;23.350;2023-04-15T05:53:07;94323.00;;;9.89;52.59
16793;BME280;8513;42.662;23.350;2023-04-15T05:55:32;94320.38;;;9.97;52.49
16793;BME280;8513;42.662;23.350;2023-04-15T05:57:58;94319.72;;;10.03;52.53
16793;BME280;8513;42.662;23.350;2023-04-15T06:00:23;94328.41;;;10.04;51.96
16793;BME280;8513;42.662;23.350;2023-04-15T06:02:49;94331.69;;;10.06;50.78
16793;BME280;8513;42.662;23.350;2023-04-15T06:05:14;94337.28;;;9.86;51.55
16793;BME280;8513;42.662;23.350;2023-04-15T06:07:40;94336.78;;;10.07;51.14
16793;BME280;8513;42.662;23.350;2023-04-15T06:10:06;94350.06;;;10.22;50.81
16793;BME280;8513;42.662;23.350;2023-04-15T06:12:32;94337.97;;;10.29;50.73
16793;BME280;8513;42.662;23.350;2023-04-15T06:14:57;94338.75;;;10.38;50.99
16793;BME280;8513;42.662;23.350;2023-04-15T06:17:23;94343.84;;;10.48;50.71
16793;BME280;8513;42.662;23.350;2023-04-15T06:19:48;94333.81;;;10.43;51.09
16793;BME280;8513;42.662;23.350;2023-04-15T06:22:15;94341.84;;;10.42;51.08
16793;BME280;8513;42.662;23.350;2023-04-15T06:24:41;94345.78;;;10.54;51.03
16793;BME280;8513;42.662;23.350;2023-04-15T06:27:07;94346.44;;;10.64;50.86
16793;BME280;8513;42.662;23.350;2023-04-15T06:29:32;94354.50;;;10.54;51.18
16793;BME280;8513;42.662;23.350;2023-04-15T06:31:57;94363.34;;;10.70;51.19
16793;BME280;8513;42.662;23.350;2023-04-15T06:34:23;94359.69;;;10.79;50.43
16793;BME280;8513;42.662;23.350;2023-04-15T06:36:48;94362.97;;;10.81;49.72
16793;BME280;8513;42.662;23.350;2023-04-15T06:39:14;94357.72;;;10.81;49.68
16793;BME280;8513;42.662;23.350;2023-04-15T06:41:40;94370.16;;;10.95;49.25
16793;BME280;8513;42.662;23.350;2023-04-15T06:44:05;94368.47;;;11.02;49.08
16793;BME280;8513;42.662;23.350;2023-04-15T06:46:31;94369.81;;;10.98;48.62
16793;BME280;8513;42.662;23.350;2023-04-15T06:48:56;94378.03;;;10.95;48.59
16793;BME280;8513;42.662;23.350;2023-04-15T06:51:22;94369.16;;;10.96;48.61
16793;BME280;8513;42.662;23.350;2023-04-15T06:53:48;94374.41;;;11.04;48.67
16793;BME280;8513;42.662;23.350;2023-04-15T06:56:13;94387.69;;;11.11;48.85
16793;BME280;8513;42.662;23.350;2023-04-15T06:58:39;94376.63;;;11.24;48.17
16793;BME280;8513;42.662;23.350;2023-04-15T07:01:04;94372.16;;;11.24;48.10
16793;BME280;8513;42.662;23.350;2023-04-15T07:03:30;94376.78;;;11.31;47.94
16793;BME280;8513;42.662;23.350;2023-04-15T07:05:55;94375.56;;;11.33;47.86
16793;BME280;8513;42.662;23.350;2023-04-15T07:08:21;94386.72;;;11.43;47.53
16793;BME280;8513;42.662;23.350;2023-04-15T07:10:47;94372.69;;;11.51;46.63
16793;BME280;8513;42.662;23.350;2023-04-15T07:13:12;94386.38;;;11.46;46.98
16793;BME280;8513;42.662;23.350;2023-04-15T07:15:38;94379.13;;;11.48;47.09
16793;BME280;8513;42.662;23.350;2023-04-15T07:18:03;94382.25;;;11.52;47.14
16793;BME280;8513;42.662;23.350;2023-04-15T07:20:29;94375.47;;;11.58;46.49
16793;BME280;8513;42.662;23.350;2023-04-15T07:22:54;94376.59;;;11.63;46.25
16793;BME280;8513;42.662;23.350;2023-04-15T07:25:20;94368.44;;;11.73;46.12
16793;BME280;8513;42.662;23.350;2023-04-15T07:27:45;94372.22;;;11.79;45.92
16793;BME280;8513;42.662;23.350;2023-04-15T07:30:11;94375.44;;;11.89;46.06
16793;BME280;8513;42.662;23.350;2023-04-15T07:32:37;94386.13;;;11.96;46.02
16793;BME280;8513;42.662;23.350;2023-04-15T07:35:03;94386.78;;;11.98;46.06
16793;BME280;8513;42.662;23.350;2023-04-15T07:37:28;94380.84;;;11.96;45.91
16793;BME280;8513;42.662;23.350;2023-04-15T07:39:54;94380.88;;;12.10;46.02
16793;BME280;8513;42.662;23.350;2023-04-15T07:42:20;94371.66;;;12.14;45.54
16793;BME280;8513;42.662;23.350;2023-04-15T07:44:46;94372.31;;;12.17;45.50
16793;BME280;8513;42.662;23.350;2023-04-15T07:47:11;94376.28;;;12.12;45.81
16793;BME280;8513;42.662;23.350;2023-04-15T07:49:37;94383.00;;;12.15;46.21
16793;BME280;8513;42.662;23.350;2023-04-15T07:52:02;94388.34;;;12.30;46.06
16793;BME280;8513;42.662;23.350;2023-04-15T07:54:28;94385.06;;;12.28;46.04
16793;BME280;8513;42.662;23.350;2023-04-15T07:56:53;94387.84;;;12.26;45.37
16793;BME280;8513;42.662;23.350;2023-04-15T07:59:20;94396.53;;;12.35;45.17
16793;BME280;8513;42.662;23.350;2023-04-15T08:01:45;94398.97;;;12.36;45.13
16793;BME280;8513;42.662;23.350;2023-04-15T08:04:11;94395.81;;;12.41;45.04
16793;BME280;8513;42.662;23.350;2023-04-15T08:06:36;94387.38;;;12.46;44.74
16793;BME280;8513;42.662;23.350;2023-04-15T08:09:04;94391.56;;;12.55;44.96
16793;BME280;8513;42.662;23.350;2023-04-15T08:11:30;94395.91;;;12.48;45.17
16793;BME280;8513;42.662;23.350;2023-04-15T08:13:56;94387.22;;;12.62;44.41
16793;BME280;8513;42.662;23.350;2023-04-15T08:16:25;94392.88;;;12.74;44.41
16793;BME280;8513;42.662;23.350;2023-04-15T08:18:53;94398.88;;;12.83;44.51
16793;BME280;8513;42.662;23.350;2023-04-15T08:21:19;94390.88;;;12.91;44.30
16793;BME280;8513;42.662;23.350;2023-04-15T08:23:47;94396.72;;;13.01;43.41
16793;BME280;8513;42.662;23.350;2023-04-15T08:26:13;94401.28;;;13.07;43.31
16793;BME280;8513;42.662;23.350;2023-04-15T08:28:41;94391.72;;;13.21;42.95
16793;BME280;8513;42.662;23.350;2023-04-15T08:31:07;94393.63;;;13.27;42.57
16793;BME280;8513;42.662;23.350;2023-04-15T08:33:33;94387.72;;;13.40;41.61
16793;BME280;8513;42.662;23.350;2023-04-15T08:35:59;94377.16;;;13.40;41.32
16793;BME280;8513;42.662;23.350;2023-04-15T08:38:24;94371.09;;;13.61;38.99
16793;BME280;8513;42.662;23.350;2023-04-15T08:40:50;94374.25;;;13.35;38.53
16793;BME280;8513;42.662;23.350;2023-04-15T08:43:23;94375.06;;;13.35;38.72
16793;BME280;8513;42.662;23.350;2023-04-15T08:45:53;94367.00;;;13.58;38.18
16793;BME280;8513;42.662;23.350;2023-04-15T08:48:19;94370.72;;;13.64;38.66
16793;BME280;8513;42.662;23.350;2023-04-15T08:50:46;94363.06;;;13.69;38.23
16793;BME280;8513;42.662;23.350;2023-04-15T08:53:12;94360.75;;;13.81;38.52
16793;BME280;8513;42.662;23.350;2023-04-15T08:55:45;94370.25;;;13.97;38.79
16793;BME280;8513;42.662;23.350;2023-04-15T08:58:14;94357.34;;;14.08;38.86
16793;BME280;8513;42.662;23.350;2023-04-15T09:00:40;94356.66;;;14.21;38.89
16793;BME280;8513;42.662;23.350;2023-04-15T09:03:07;94352.16;;;14.22;39.55
16793;BME280;8513;42.662;23.350;2023-04-15T09:05:34;94357.56;;;14.35;39.02
16793;BME280;8513;42.662;23.350;2023-04-15T09:08:01;94356.13;;;14.32;37.82
16793;BME280;8513;42.662;23.350;2023-04-15T09:10:27;94355.19;;;14.40;38.19
16793;BME280;8513;42.662;23.350;2023-04-15T09:12:53;94352.53;;;14.62;37.93
16793;BME280;8513;42.662;23.350;2023-04-15T09:15:19;94355.00;;;14.70;36.00
16793;BME280;8513;42.662;23.350;2023-04-15T09:17:45;94333.09;;;14.76;35.15
16793;BME280;8513;42.662;23.350;2023-04-15T09:22:38;94326.59;;;15.13;34.25
16793;BME280;8513;42.662;23.350;2023-04-15T09:25:24;94332.22;;;15.04;34.61
16793;BME280;8513;42.662;23.350;2023-04-15T09:28:00;94332.53;;;14.87;33.75
16793;BME280;8513;42.662;23.350;2023-04-15T09:30:27;94341.13;;;14.89;33.62
16793;BME280;8513;42.662;23.350;2023-04-15T09:32:58;94346.50;;;15.03;33.32
16793;BME280;8513;42.662;23.350;2023-04-15T09:35:25;94344.19;;;15.34;32.54
16793;BME280;8513;42.662;23.350;2023-04-15T09:37:52;94335.63;;;15.39;32.76
16793;BME280;8513;42.662;23.350;2023-04-15T09:40:38;94343.28;;;15.62;32.17
16793;BME280;8513;42.662;23.350;2023-04-15T09:43:04;94334.28;;;15.63;32.37
16793;BME280;8513;42.662;23.350;2023-04-15T09:45:31;94340.88;;;15.74;31.60
16793;BME280;8513;42.662;23.350;2023-04-15T09:47:58;94336.44;;;15.94;31.40
16793;BME280;8513;42.662;23.350;2023-04-15T09:50:28;94337.25;;;15.95;30.80
16793;BME280;8513;42.662;23.350;2023-04-15T09:52:54;94350.53;;;15.88;32.21
16793;BME280;8513;42.662;23.350;2023-04-15T09:55:20;94338.50;;;16.05;31.33
16793;BME280;8513;42.662;23.350;2023-04-15T09:57:45;94352.16;;;16.09;31.42
16793;BME280;8513;42.662;23.350;2023-04-15T10:00:14;94343.22;;;16.30;30.42
16793;BME280;8513;42.662;23.350;2023-04-15T10:02:40;94336.69;;;16.52;29.39
16793;BME280;8513;42.662;23.350;2023-04-15T10:05:09;94334.25;;;16.71;28.54
16793;BME280;8513;42.662;23.350;2023-04-15T10:07:34;94334.63;;;16.81;29.02
16793;BME280;8513;42.662;23.350;2023-04-15T10:10:00;94339.38;;;16.79;28.50
16793;BME280;8513;42.662;23.350;2023-04-15T10:12:28;94332.59;;;16.90;26.17
16793;BME280;8513;42.662;23.350;2023-04-15T10:15:03;94322.78;;;16.84;25.03
16793;BME280;8513;42.662;23.350;2023-04-15T10:17:32;94316.28;;;16.53;25.83
16793;BME280;8513;42.662;23.350;2023-04-15T10:20:02;94304.03;;;16.52;25.97
16793;BME280;8513;42.662;23.350;2023-04-15T10:22:29;94310.34;;;16.38;26.45
16793;BME280;8513;42.662;23.350;2023-04-15T10:24:55;94300.13;;;16.61;26.86
16793;BME280;8513;42.662;23.350;2023-04-15T10:27:20;94311.56;;;16.48;26.33
16793;BME280;8513;42.662;23.350;2023-04-15T10:29:48;94297.88;;;16.78;25.78
16793;BME280;8513;42.662;23.350;2023-04-15T10:32:16;94301.53;;;16.84;25.90
16793;BME280;8513;42.662;23.350;2023-04-15T10:34:43;94295.59;;;17.02;26.02
16793;BME280;8513;42.662;23.350;2023-04-15T10:37:09;94306.78;;;17.17;26.70
16793;BME280;8513;42.662;23.350;2023-04-15T10:42:09;94290.13;;;17.41;26.30
16793;BME280;8513;42.662;23.350;2023-04-15T10:44:40;94296.00;;;17.57;26.03
16793;BME280;8513;42.662;23.350;2023-04-15T10:47:11;94301.44;;;17.69;26.23
16793;BME280;8513;42.662;23.350;2023-04-15T10:49:45;94298.09;;;17.87;25.65
16793;BME280;8513;42.662;23.350;2023-04-15T10:52:11;94294.81;;;17.91;25.69
16793;BME280;8513;42.662;23.350;2023-04-15T10:54:38;94298.91;;;17.87;25.78
16793;BME280;8513;42.662;23.350;2023-04-15T11:00:08;94290.50;;;17.90;25.07
16793;BME280;8513;42.662;23.350;2023-04-15T11:05:17;94284.53;;;17.56;25.72
16793;BME280;8513;42.662;23.350;2023-04-15T11:12:51;94279.13;;;18.33;24.83
16793;BME280;8513;42.662;23.350;2023-04-15T11:15:30;94285.75;;;18.49;25.23
16793;BME280;8513;42.662;23.350;2023-04-15T11:20:37;94278.72;;;18.55;24.32
16793;BME280;8513;42.662;23.350;2023-04-15T11:23:03;94278.28;;;18.58;24.28
16793;BME280;8513;42.662;23.350;2023-04-15T11:25:31;94282.81;;;18.82;23.89
16793;BME280;8513;42.662;23.350;2023-04-15T11:27:58;94290.94;;;19.06;23.61
16793;BME280;8513;42.662;23.350;2023-04-15T11:30:25;94295.59;;;18.48;22.38
16793;BME280;8513;42.662;23.350;2023-04-15T11:32:53;94280.88;;;18.46;21.51
16793;BME280;8513;42.662;23.350;2023-04-15T11:35:19;94293.13;;;18.47;21.45
16793;BME280;8513;42.662;23.350;2023-04-15T11:37:45;94281.41;;;18.55;21.62
16793;BME280;8513;42.662;23.350;2023-04-15T11:40:11;94279.72;;;18.35;20.81
16793;BME280;8513;42.662;23.350;2023-04-15T11:42:38;94277.72;;;18.30;21.18
16793;BME280;8513;42.662;23.350;2023-04-15T11:45:10;94274.81;;;18.57;20.41
16793;BME280;8513;42.662;23.350;2023-04-15T11:47:36;94279.56;;;18.80;20.92
16793;BME280;8513;42.662;23.350;2023-04-15T11:53:00;94277.28;;;18.59;20.52
16793;BME280;8513;42.662;23.350;2023-04-15T11:55:26;94275.03;;;18.81;20.99
16793;BME280;8513;42.662;23.350;2023-04-15T12:00:32;94276.34;;;18.46;20.89
16793;BME280;8513;42.662;23.350;2023-04-15T12:16:24;94268.31;;;19.15;19.65
16793;BME280;8513;42.662;23.350;2023-04-15T12:18:51;94263.34;;;19.18;19.43
16793;BME280;8513;42.662;23.350;2023-04-15T12:21:21;94263.78;;;19.15;19.90
16793;BME280;8513;42.662;23.350;2023-04-15T12:23:51;94259.22;;;19.04;19.92
16793;BME280;8513;42.662;23.350;2023-04-15T12:26:17;94259.34;;;19.46;19.79
16793;BME280;8513;42.662;23.350;2023-04-15T12:28:43;94260.28;;;19.70;20.22
16793;BME280;8513;42.662;23.350;2023-04-15T12:31:10;94269.97;;;19.65;20.29
16793;BME280;8513;42.662;23.350;2023-04-15T12:33:36;94273.63;;;19.82;20.06
16793;BME280;8513;42.662;23.350;2023-04-15T12:36:02;94276.66;;;19.86;19.79
16793;BME280;8513;42.662;23.350;2023-04-15T12:38:28;94276.56;;;19.62;19.78
16793;BME280;8513;42.662;23.350;2023-04-15T12:40:53;94285.38;;;19.63;19.66
16793;BME280;8513;42.662;23.350;2023-04-15T12:43:19;94278.78;;;19.65;19.82
16793;BME280;8513;42.662;23.350;2023-04-15T12:45:44;94272.91;;;20.05;19.85
16793;BME280;8513;42.662;23.350;2023-04-15T12:48:10;94277.44;;;20.16;20.01
16793;BME280;8513;42.662;23.350;2023-04-15T12:50:35;94282.91;;;19.61;20.35
16793;BME280;8513;42.662;23.350;2023-04-15T12:53:02;94278.31;;;19.98;19.93
16793;BME280;8513;42.662;23.350;2023-04-15T12:55:28;94288.59;;;20.25;19.80
16793;BME280;8513;42.662;23.350;2023-04-15T12:57:55;94277.88;;;20.01;19.45
16793;BME280;8513;42.662;23.350;2023-04-15T13:00:21;94283.44;;;20.54;19.53
16793;BME280;8513;42.662;23.350;2023-04-15T13:02:46;94282.25;;;20.38;19.44
16793;BME280;8513;42.662;23.350;2023-04-15T13:05:12;94282.63;;;20.53;19.29
16793;BME280;8513;42.662;23.350;2023-04-15T13:07:39;94277.44;;;20.58;19.82
16793;BME280;8513;42.662;23.350;2023-04-15T13:10:05;94280.66;;;20.60;19.19
16793;BME280;8513;42.662;23.350;2023-04-15T13:12:32;94273.13;;;20.81;18.96
16793;BME280;8513;42.662;23.350;2023-04-15T13:15:01;94277.53;;;20.99;18.43
16793;BME280;8513;42.662;23.350;2023-04-15T13:17:26;94282.28;;;20.85;18.54
16793;BME280;8513;42.662;23.350;2023-04-15T13:19:52;94277.28;;;21.12;19.08
16793;BME280;8513;42.662;23.350;2023-04-15T13:22:17;94274.53;;;21.35;18.69
16793;BME280;8513;42.662;23.350;2023-04-15T13:24:43;94266.00;;;20.98;18.62
16793;BME280;8513;42.662;23.350;2023-04-15T13:27:08;94264.94;;;21.23;18.85
16793;BME280;8513;42.662;23.350;2023-04-15T13:29:34;94257.22;;;21.50;18.39
16793;BME280;8513;42.662;23.350;2023-04-15T13:31:59;94266.25;;;21.89;17.89
16793;BME280;8513;42.662;23.350;2023-04-15T13:34:25;94271.22;;;21.69;18.17
16793;BME280;8513;42.662;23.350;2023-04-15T13:36:51;94264.31;;;22.01;17.65